sensor_id;sensor_type;location;lat;lon;timestamp;temperature;humidity
13898;DHT22;7019;50.766;4.474;2024-03-02T00:00:49;5.90;99.90
13898;DHT22;7019;50.766;4.474;2024-03-02T00:03:17;5.90;99.90
13898;DHT22;7019;50.766;4.474;2024-03-02T00:05:49;5.90;99.90
13898;DHT22;7019;50.766;4.474;2024-03-02T00:08:23;5.80;99.90
13898;DHT22;7019;50.766;4.474;2024-03-02T00:10:51;5.90;99.90
13898;DHT22;7019;50.766;4.474;2024-03-02T00:13:20;5.90;99.90
13898;DHT22;7019;50.766;4.474;2024-03-02T00:15:52;5.90;99.90
13898;DHT22;7019;50.766;4.474;2024-03-02T00:18:21;5.90;99.90
13898;DHT22;7019;50.766;4.474;2024-03-02T00:20:53;5.90;99.90
13898;DHT22;7019;50.766;4.474;2024-03-02T00:23:21;5.90;99.90
13898;DHT22;7019;50.766;4.474;2024-03-02T00:25:50;5.90;99.90
13898;DHT22;7019;50.766;4.474;2024-03-02T00:28:20;5.90;99.90
13898;DHT22;7019;50.766;4.474;2024-03-02T00:31:04;5.90;99.90
13898;DHT22;7019;50.766;4.474;2024-03-02T00:33:34;5.90;99.90
13898;DHT22;7019;50.766;4.474;2024-03-02T00:36:03;5.80;99.90
13898;DHT22;7019;50.766;4.474;2024-03-02T00:38:31;5.90;99.90
13898;DHT22;7019;50.766;4.474;2024-03-02T00:40:59;5.80;99.90
13898;DHT22;7019;50.766;4.474;2024-03-02T00:43:42;5.80;99.90
13898;DHT22;7019;50.766;4.474;2024-03-02T00:46:11;5.80;99.90
13898;DHT22;7019;50.766;4.474;2024-03-02T00:48:43;5.80;99.90
13898;DHT22;7019;50.766;4.474;2024-03-02T00:51:13;5.80;99.90
13898;DHT22;7019;50.766;4.474;2024-03-02T00:53:40;5.80;99.90
13898;DHT22;7019;50.766;4.474;2024-03-02T00:56:09;5.80;99.90
13898;DHT22;7019;50.766;4.474;2024-03-02T00:58:37;5.70;99.90
13898;DHT22;7019;50.766;4.474;2024-03-02T01:01:05;5.70;99.90
13898;DHT22;7019;50.766;4.474;2024-03-02T01:03:32;5.70;99.90
13898;DHT22;7019;50.766;4.474;2024-03-02T01:06:00;5.70;99.90
13898;DHT22;7019;50.766;4.474;2024-03-02T01:08:29;5.70;99.90
13898;DHT22;7019;50.766;4.474;2024-03-02T01:10:56;5.70;99.90
13898;DHT22;7019;50.766;4.474;2024-03-02T01:13:23;5.70;99.90
13898;DHT22;7019;50.766;4.474;2024-03-02T01:15:50;5.70;99.90
13898;DHT22;7019;50.766;4.474;2024-03-02T01:18:17;5.70;99.90
13898;DHT22;7019;50.766;4.474;2024-03-02T01:20:44;5.70;99.90
13898;DHT22;7019;50.766;4.474;2024-03-02T01:23:12;5.70;99.90
13898;DHT22;7019;50.766;4.474;2024-03-02T01:25:40;5.70;99.90
13898;DHT22;7019;50.766;4.474;2024-03-02T01:28:07;5.70;99.90
13898;DHT22;7019;50.766;4.474;2024-03-02T01:30:34;5.70;99.90
13898;DHT22;7019;50.766;4.474;2024-03-02T01:33:02;5.70;99.90
13898;DHT22;7019;50.766;4.474;2024-03-02T01:35:31;5.70;99.90
13898;DHT22;7019;50.766;4.474;2024-03-02T01:37:58;5.70;99.90
13898;DHT22;7019;50.766;4.474;2024-03-02T01:40:25;5.70;99.90
13898;DHT22;7019;50.766;4.474;2024-03-02T01:42:54;5.70;99.90
13898;DHT22;7019;50.766;4.474;2024-03-02T01:45:24;5.70;99.90
13898;DHT22;7019;50.766;4.474;2024-03-02T01:47:51;5.70;99.90
13898;DHT22;7019;50.766;4.474;2024-03-02T01:50:25;5.70;99.90
13898;DHT22;7019;50.766;4.474;2024-03-02T01:52:53;5.70;99.90
13898;DHT22;7019;50.766;4.474;2024-03-02T01:55:20;5.70;99.90
13898;DHT22;7019;50.766;4.474;2024-03-02T01:57:48;5.70;99.90
13898;DHT22;7019;50.766;4.474;2024-03-02T02:00:18;5.70;99.90
13898;DHT22;7019;50.766;4.474;2024-03-02T02:02:46;5.70;99.90
13898;DHT22;7019;50.766;4.474;2024-03-02T02:05:13;5.70;99.90
13898;DHT22;7019;50.766;4.474;2024-03-02T02:07:40;5.70;99.90
13898;DHT22;7019;50.766;4.474;2024-03-02T02:10:09;5.80;99.90
13898;DHT22;7019;50.766;4.474;2024-03-02T02:12:36;5.80;99.90
13898;DHT22;7019;50.766;4.474;2024-03-02T02:15:04;5.80;99.90
13898;DHT22;7019;50.766;4.474;2024-03-02T02:17:32;5.80;99.90
13898;DHT22;7019;50.766;4.474;2024-03-02T02:19:59;5.80;99.90
13898;DHT22;7019;50.766;4.474;2024-03-02T02:22:28;5.80;99.90
13898;DHT22;7019;50.766;4.474;2024-03-02T02:24:55;5.80;99.90
13898;DHT22;7019;50.766;4.474;2024-03-02T02:27:22;5.70;99.90
13898;DHT22;7019;50.766;4.474;2024-03-02T02:29:49;5.70;99.90
13898;DHT22;7019;50.766;4.474;2024-03-02T02:32:16;5.70;99.90
13898;DHT22;7019;50.766;4.474;2024-03-02T02:34:43;5.70;99.90
13898;DHT22;7019;50.766;4.474;2024-03-02T02:37:10;5.70;99.90
13898;DHT22;7019;50.766;4.474;2024-03-02T02:39:38;5.70;99.90
13898;DHT22;7019;50.766;4.474;2024-03-02T02:42:06;5.70;99.90
13898;DHT22;7019;50.766;4.474;2024-03-02T02:44:33;5.70;99.90
13898;DHT22;7019;50.766;4.474;2024-03-02T02:47:00;5.70;99.90
13898;DHT22;7019;50.766;4.474;2024-03-02T02:49:27;5.70;99.90
13898;DHT22;7019;50.766;4.474;2024-03-02T02:51:54;5.70;99.90
13898;DHT22;7019;50.766;4.474;2024-03-02T02:54:20;5.70;99.90
13898;DHT22;7019;50.766;4.474;2024-03-02T02:56:49;5.70;99.90
13898;DHT22;7019;50.766;4.474;2024-03-02T02:59:16;5.60;99.90
13898;DHT22;7019;50.766;4.474;2024-03-02T03:01:43;5.50;99.90
13898;DHT22;7019;50.766;4.474;2024-03-02T03:04:10;5.30;99.90
13898;DHT22;7019;50.766;4.474;2024-03-02T03:06:37;5.30;99.90
13898;DHT22;7019;50.766;4.474;2024-03-02T03:09:04;5.20;99.90
13898;DHT22;7019;50.766;4.474;2024-03-02T03:11:31;5.10;99.90
13898;DHT22;7019;50.766;4.474;2024-03-02T03:13:59;5.00;99.90
13898;DHT22;7019;50.766;4.474;2024-03-02T03:16:27;5.00;99.90
13898;DHT22;7019;50.766;4.474;2024-03-02T03:18:54;5.00;99.90
13898;DHT22;7019;50.766;4.474;2024-03-02T03:21:21;5.00;99.90
13898;DHT22;7019;50.766;4.474;2024-03-02T03:23:48;5.00;99.90
13898;DHT22;7019;50.766;4.474;2024-03-02T03:26:15;5.10;99.90
13898;DHT22;7019;50.766;4.474;2024-03-02T03:28:42;5.00;99.90
13898;DHT22;7019;50.766;4.474;2024-03-02T03:31:10;5.00;99.90
13898;DHT22;7019;50.766;4.474;2024-03-02T03:33:38;4.90;99.90
13898;DHT22;7019;50.766;4.474;2024-03-02T03:36:05;5.00;99.90
13898;DHT22;7019;50.766;4.474;2024-03-02T03:38:32;5.00;99.90
13898;DHT22;7019;50.766;4.474;2024-03-02T03:40:59;4.90;99.90
13898;DHT22;7019;50.766;4.474;2024-03-02T03:43:26;5.00;99.90
13898;DHT22;7019;50.766;4.474;2024-03-02T03:45:53;5.00;99.90
13898;DHT22;7019;50.766;4.474;2024-03-02T03:48:21;5.00;99.90
13898;DHT22;7019;50.766;4.474;2024-03-02T03:50:48;5.10;99.90
13898;DHT22;7019;50.766;4.474;2024-03-02T03:53:15;5.10;99.90
13898;DHT22;7019;50.766;4.474;2024-03-02T03:55:42;5.10;99.90
13898;DHT22;7019;50.766;4.474;2024-03-02T03:58:12;5.00;99.90
13898;DHT22;7019;50.766;4.474;2024-03-02T04:00:40;5.00;99.90
13898;DHT22;7019;50.766;4.474;2024-03-02T04:03:07;4.90;99.90
13898;DHT22;7019;50.766;4.474;2024-03-02T04:05:35;4.80;99.90
13898;DHT22;7019;50.766;4.474;2024-03-02T04:08:02;4.70;99.90
13898;DHT22;7019;50.766;4.474;2024-03-02T04:10:29;4.60;99.90
13898;DHT22;7019;50.766;4.474;2024-03-02T04:12:56;4.60;99.90
13898;DHT22;7019;50.766;4.474;2024-03-02T04:15:23;4.60;99.90
13898;DHT22;7019;50.766;4.474;2024-03-02T04:17:51;4.60;99.90
13898;DHT22;7019;50.766;4.474;2024-03-02T04:20:18;4.60;99.90
13898;DHT22;7019;50.766;4.474;2024-03-02T04:22:46;4.60;99.90
13898;DHT22;7019;50.766;4.474;2024-03-02T04:25:13;4.50;99.90
13898;DHT22;7019;50.766;4.474;2024-03-02T04:27:41;4.50;99.90
13898;DHT22;7019;50.766;4.474;2024-03-02T04:30:08;4.50;99.90
13898;DHT22;7019;50.766;4.474;2024-03-02T04:32:36;4.50;99.90
13898;DHT22;7019;50.766;4.474;2024-03-02T04:35:03;4.40;99.90
13898;DHT22;7019;50.766;4.474;2024-03-02T04:37:31;4.30;99.90
13898;DHT22;7019;50.766;4.474;2024-03-02T04:39:59;4.20;99.90
13898;DHT22;7019;50.766;4.474;2024-03-02T04:42:26;4.10;99.90
13898;DHT22;7019;50.766;4.474;2024-03-02T04:44:54;4.00;99.90
13898;DHT22;7019;50.766;4.474;2024-03-02T04:47:21;4.00;99.90
13898;DHT22;7019;50.766;4.474;2024-03-02T04:49:48;3.90;99.90
13898;DHT22;7019;50.766;4.474;2024-03-02T04:52:16;3.90;99.90
13898;DHT22;7019;50.766;4.474;2024-03-02T04:54:43;3.90;99.90
13898;DHT22;7019;50.766;4.474;2024-03-02T04:57:25;4.00;99.90
13898;DHT22;7019;50.766;4.474;2024-03-02T04:59:52;4.10;99.90
13898;DHT22;7019;50.766;4.474;2024-03-02T05:02:19;4.10;99.90
13898;DHT22;7019;50.766;4.474;2024-03-02T05:04:46;4.20;99.90
13898;DHT22;7019;50.766;4.474;2024-03-02T05:07:14;4.20;99.90
13898;DHT22;7019;50.766;4.474;2024-03-02T05:09:41;4.30;99.90
13898;DHT22;7019;50.766;4.474;2024-03-02T05:12:08;4.30;99.90
13898;DHT22;7019;50.766;4.474;2024-03-02T05:14:50;4.20;99.90
13898;DHT22;7019;50.766;4.474;2024-03-02T05:17:17;4.30;99.90
13898;DHT22;7019;50.766;4.474;2024-03-02T05:19:44;4.20;99.90
13898;DHT22;7019;50.766;4.474;2024-03-02T05:22:11;4.20;99.90
13898;DHT22;7019;50.766;4.474;2024-03-02T05:24:38;4.10;99.90
13898;DHT22;7019;50.766;4.474;2024-03-02T05:27:05;4.10;99.90
13898;DHT22;7019;50.766;4.474;2024-03-02T05:29:33;4.10;99.90
13898;DHT22;7019;50.766;4.474;2024-03-02T05:32:01;4.10;99.90
13898;DHT22;7019;50.766;4.474;2024-03-02T05:34:28;4.10;99.90
13898;DHT22;7019;50.766;4.474;2024-03-02T05:36:56;4.10;99.90
13898;DHT22;7019;50.766;4.474;2024-03-02T05:39:24;4.10;99.90
13898;DHT22;7019;50.766;4.474;2024-03-02T05:41:51;4.10;99.90
13898;DHT22;7019;50.766;4.474;2024-03-02T05:44:18;4.10;99.90
13898;DHT22;7019;50.766;4.474;2024-03-02T05:46:45;4.10;99.90
13898;DHT22;7019;50.766;4.474;2024-03-02T05:49:14;4.00;99.90
13898;DHT22;7019;50.766;4.474;2024-03-02T05:51:41;3.90;99.90
13898;DHT22;7019;50.766;4.474;2024-03-02T05:54:08;3.80;99.90
13898;DHT22;7019;50.766;4.474;2024-03-02T05:56:35;3.80;99.90
13898;DHT22;7019;50.766;4.474;2024-03-02T05:59:02;3.90;99.90
13898;DHT22;7019;50.766;4.474;2024-03-02T06:01:38;3.80;99.90
13898;DHT22;7019;50.766;4.474;2024-03-02T06:04:05;3.90;99.90
13898;DHT22;7019;50.766;4.474;2024-03-02T06:06:33;3.90;99.90
13898;DHT22;7019;50.766;4.474;2024-03-02T06:09:00;3.90;99.90
13898;DHT22;7019;50.766;4.474;2024-03-02T06:11:28;3.90;99.90
13898;DHT22;7019;50.766;4.474;2024-03-02T06:13:55;3.90;99.90
13898;DHT22;7019;50.766;4.474;2024-03-02T06:16:22;3.90;99.90
13898;DHT22;7019;50.766;4.474;2024-03-02T06:18:49;3.90;99.90
13898;DHT22;7019;50.766;4.474;2024-03-02T06:21:17;3.80;99.90
13898;DHT22;7019;50.766;4.474;2024-03-02T06:23:46;3.70;99.90
13898;DHT22;7019;50.766;4.474;2024-03-02T06:26:13;3.60;99.90
13898;DHT22;7019;50.766;4.474;2024-03-02T06:28:40;3.60;99.90
13898;DHT22;7019;50.766;4.474;2024-03-02T06:31:07;3.70;99.90
13898;DHT22;7019;50.766;4.474;2024-03-02T06:33:34;3.70;99.90
13898;DHT22;7019;50.766;4.474;2024-03-02T06:36:01;3.70;99.90
13898;DHT22;7019;50.766;4.474;2024-03-02T06:38:28;3.80;99.90
13898;DHT22;7019;50.766;4.474;2024-03-02T06:40:59;3.80;99.90
13898;DHT22;7019;50.766;4.474;2024-03-02T06:43:26;3.80;99.90
13898;DHT22;7019;50.766;4.474;2024-03-02T06:45:53;3.80;99.90
13898;DHT22;7019;50.766;4.474;2024-03-02T06:48:20;3.80;99.90
13898;DHT22;7019;50.766;4.474;2024-03-02T06:50:47;3.80;99.90
13898;DHT22;7019;50.766;4.474;2024-03-02T06:53:14;3.70;99.90
13898;DHT22;7019;50.766;4.474;2024-03-02T06:55:43;3.50;99.90
13898;DHT22;7019;50.766;4.474;2024-03-02T06:58:13;3.50;99.90
13898;DHT22;7019;50.766;4.474;2024-03-02T07:00:41;3.50;99.90
13898;DHT22;7019;50.766;4.474;2024-03-02T07:03:09;3.50;99.90
13898;DHT22;7019;50.766;4.474;2024-03-02T07:05:37;3.50;99.90
13898;DHT22;7019;50.766;4.474;2024-03-02T07:08:04;3.50;99.90
13898;DHT22;7019;50.766;4.474;2024-03-02T07:10:32;3.60;99.90
13898;DHT22;7019;50.766;4.474;2024-03-02T07:12:59;3.60;99.90
13898;DHT22;7019;50.766;4.474;2024-03-02T07:15:27;3.70;99.90
13898;DHT22;7019;50.766;4.474;2024-03-02T07:18:13;3.90;99.90
13898;DHT22;7019;50.766;4.474;2024-03-02T07:20:40;4.00;99.90
13898;DHT22;7019;50.766;4.474;2024-03-02T07:23:07;4.00;99.90
13898;DHT22;7019;50.766;4.474;2024-03-02T07:25:35;4.30;99.90
13898;DHT22;7019;50.766;4.474;2024-03-02T07:28:02;4.70;99.90
13898;DHT22;7019;50.766;4.474;2024-03-02T07:30:31;5.10;99.90
13898;DHT22;7019;50.766;4.474;2024-03-02T07:32:58;5.40;99.90
13898;DHT22;7019;50.766;4.474;2024-03-02T07:35:25;5.70;99.90
13898;DHT22;7019;50.766;4.474;2024-03-02T07:37:53;5.80;99.90
13898;DHT22;7019;50.766;4.474;2024-03-02T07:40:21;6.00;99.90
13898;DHT22;7019;50.766;4.474;2024-03-02T07:42:48;6.10;99.90
13898;DHT22;7019;50.766;4.474;2024-03-02T07:45:15;6.10;99.90
13898;DHT22;7019;50.766;4.474;2024-03-02T07:47:43;6.10;99.90
13898;DHT22;7019;50.766;4.474;2024-03-02T07:50:11;6.20;99.90
13898;DHT22;7019;50.766;4.474;2024-03-02T07:52:38;6.20;99.90
13898;DHT22;7019;50.766;4.474;2024-03-02T07:55:05;6.10;99.90
13898;DHT22;7019;50.766;4.474;2024-03-02T07:57:32;6.10;99.90
13898;DHT22;7019;50.766;4.474;2024-03-02T07:59:59;6.20;99.90
13898;DHT22;7019;50.766;4.474;2024-03-02T08:02:26;6.20;99.90
13898;DHT22;7019;50.766;4.474;2024-03-02T08:04:55;6.30;99.90
13898;DHT22;7019;50.766;4.474;2024-03-02T08:07:22;6.40;99.90
13898;DHT22;7019;50.766;4.474;2024-03-02T08:09:49;6.50;99.90
13898;DHT22;7019;50.766;4.474;2024-03-02T08:12:16;6.60;99.90
13898;DHT22;7019;50.766;4.474;2024-03-02T08:14:45;6.80;99.90
13898;DHT22;7019;50.766;4.474;2024-03-02T08:17:12;6.80;99.90
13898;DHT22;7019;50.766;4.474;2024-03-02T08:19:39;7.00;99.90
13898;DHT22;7019;50.766;4.474;2024-03-02T08:22:08;7.20;99.90
13898;DHT22;7019;50.766;4.474;2024-03-02T08:24:35;7.30;99.90
13898;DHT22;7019;50.766;4.474;2024-03-02T08:27:03;7.40;99.90
13898;DHT22;7019;50.766;4.474;2024-03-02T08:29:31;7.60;99.90
13898;DHT22;7019;50.766;4.474;2024-03-02T08:31:58;7.70;99.90
13898;DHT22;7019;50.766;4.474;2024-03-02T08:34:25;7.80;99.90
13898;DHT22;7019;50.766;4.474;2024-03-02T08:36:52;7.80;99.90
13898;DHT22;7019;50.766;4.474;2024-03-02T08:39:20;7.60;99.90
13898;DHT22;7019;50.766;4.474;2024-03-02T08:41:47;7.60;99.90
13898;DHT22;7019;50.766;4.474;2024-03-02T08:44:15;7.50;99.90
13898;DHT22;7019;50.766;4.474;2024-03-02T08:46:42;7.60;99.90
13898;DHT22;7019;50.766;4.474;2024-03-02T08:49:10;7.60;99.90
13898;DHT22;7019;50.766;4.474;2024-03-02T08:51:37;7.60;99.90
13898;DHT22;7019;50.766;4.474;2024-03-02T08:54:05;7.60;99.90
13898;DHT22;7019;50.766;4.474;2024-03-02T08:56:33;7.60;99.90
13898;DHT22;7019;50.766;4.474;2024-03-02T08:59:00;7.60;99.90
13898;DHT22;7019;50.766;4.474;2024-03-02T09:01:27;7.70;99.90
13898;DHT22;7019;50.766;4.474;2024-03-02T09:03:54;7.80;99.90
13898;DHT22;7019;50.766;4.474;2024-03-02T09:06:21;7.80;99.90
13898;DHT22;7019;50.766;4.474;2024-03-02T09:08:48;7.90;99.90
13898;DHT22;7019;50.766;4.474;2024-03-02T09:11:17;7.90;99.90
13898;DHT22;7019;50.766;4.474;2024-03-02T09:13:46;7.90;99.90
13898;DHT22;7019;50.766;4.474;2024-03-02T09:16:13;8.10;99.90
13898;DHT22;7019;50.766;4.474;2024-03-02T09:18:40;8.20;99.90
13898;DHT22;7019;50.766;4.474;2024-03-02T09:21:07;8.20;99.90
13898;DHT22;7019;50.766;4.474;2024-03-02T09:23:34;8.30;99.90
13898;DHT22;7019;50.766;4.474;2024-03-02T09:26:01;8.50;99.90
13898;DHT22;7019;50.766;4.474;2024-03-02T09:28:29;8.60;99.90
13898;DHT22;7019;50.766;4.474;2024-03-02T09:30:57;8.80;99.90
13898;DHT22;7019;50.766;4.474;2024-03-02T09:33:24;8.70;99.90
13898;DHT22;7019;50.766;4.474;2024-03-02T09:35:51;8.70;99.90
13898;DHT22;7019;50.766;4.474;2024-03-02T09:38:18;8.70;99.90
13898;DHT22;7019;50.766;4.474;2024-03-02T09:40:45;8.60;99.90
13898;DHT22;7019;50.766;4.474;2024-03-02T09:43:13;8.60;99.90
13898;DHT22;7019;50.766;4.474;2024-03-02T09:45:40;8.70;99.90
13898;DHT22;7019;50.766;4.474;2024-03-02T09:48:09;8.80;99.90
13898;DHT22;7019;50.766;4.474;2024-03-02T09:50:36;9.10;99.90
13898;DHT22;7019;50.766;4.474;2024-03-02T09:53:03;9.40;99.90
13898;DHT22;7019;50.766;4.474;2024-03-02T09:55:30;9.60;99.90
13898;DHT22;7019;50.766;4.474;2024-03-02T09:57:57;9.80;99.90
13898;DHT22;7019;50.766;4.474;2024-03-02T10:00:24;10.10;99.90
13898;DHT22;7019;50.766;4.474;2024-03-02T10:02:52;10.10;99.90
13898;DHT22;7019;50.766;4.474;2024-03-02T10:05:27;10.20;99.90
13898;DHT22;7019;50.766;4.474;2024-03-02T10:08:01;10.00;99.90
13898;DHT22;7019;50.766;4.474;2024-03-02T10:10:35;9.90;99.90
13898;DHT22;7019;50.766;4.474;2024-03-02T10:13:06;9.90;99.90
13898;DHT22;7019;50.766;4.474;2024-03-02T10:15:34;9.90;99.90
13898;DHT22;7019;50.766;4.474;2024-03-02T10:18:03;10.00;99.90
13898;DHT22;7019;50.766;4.474;2024-03-02T10:20:31;10.10;99.90
13898;DHT22;7019;50.766;4.474;2024-03-02T10:23:10;10.20;99.90
13898;DHT22;7019;50.766;4.474;2024-03-02T10:25:38;10.10;99.90
13898;DHT22;7019;50.766;4.474;2024-03-02T10:28:05;10.20;99.90
13898;DHT22;7019;50.766;4.474;2024-03-02T10:30:33;10.30;99.90
13898;DHT22;7019;50.766;4.474;2024-03-02T10:33:01;10.40;99.90
13898;DHT22;7019;50.766;4.474;2024-03-02T10:35:28;10.30;99.90
13898;DHT22;7019;50.766;4.474;2024-03-02T10:37:58;10.10;99.90
13898;DHT22;7019;50.766;4.474;2024-03-02T10:40:27;10.10;99.90
13898;DHT22;7019;50.766;4.474;2024-03-02T10:42:54;10.30;99.90
13898;DHT22;7019;50.766;4.474;2024-03-02T10:45:22;10.30;99.90
13898;DHT22;7019;50.766;4.474;2024-03-02T10:47:50;10.30;99.90
13898;DHT22;7019;50.766;4.474;2024-03-02T10:50:17;10.40;99.90
13898;DHT22;7019;50.766;4.474;2024-03-02T10:52:45;10.50;99.90
13898;DHT22;7019;50.766;4.474;2024-03-02T10:55:14;10.70;99.90
13898;DHT22;7019;50.766;4.474;2024-03-02T10:57:42;10.80;99.90
13898;DHT22;7019;50.766;4.474;2024-03-02T11:00:12;10.70;99.90
13898;DHT22;7019;50.766;4.474;2024-03-02T11:02:49;10.60;99.90
13898;DHT22;7019;50.766;4.474;2024-03-02T11:05:26;10.70;99.90
13898;DHT22;7019;50.766;4.474;2024-03-02T11:07:59;10.90;99.90
13898;DHT22;7019;50.766;4.474;2024-03-02T11:10:35;11.00;99.90
13898;DHT22;7019;50.766;4.474;2024-03-02T11:13:05;11.00;99.90
13898;DHT22;7019;50.766;4.474;2024-03-02T11:15:35;11.20;99.90
13898;DHT22;7019;50.766;4.474;2024-03-02T11:18:04;11.40;99.90
13898;DHT22;7019;50.766;4.474;2024-03-02T11:20:36;11.40;99.90
13898;DHT22;7019;50.766;4.474;2024-03-02T11:23:08;11.50;99.90
13898;DHT22;7019;50.766;4.474;2024-03-02T11:25:36;11.40;99.90
13898;DHT22;7019;50.766;4.474;2024-03-02T11:28:06;11.20;99.90
13898;DHT22;7019;50.766;4.474;2024-03-02T11:30:50;11.10;99.90
13898;DHT22;7019;50.766;4.474;2024-03-02T11:33:23;11.00;99.90
13898;DHT22;7019;50.766;4.474;2024-03-02T11:35:53;11.10;99.90
13898;DHT22;7019;50.766;4.474;2024-03-02T11:38:20;11.10;99.90
13898;DHT22;7019;50.766;4.474;2024-03-02T11:40:49;11.00;99.90
13898;DHT22;7019;50.766;4.474;2024-03-02T11:43:17;11.00;99.90
13898;DHT22;7019;50.766;4.474;2024-03-02T11:45:44;11.00;99.90
13898;DHT22;7019;50.766;4.474;2024-03-02T11:48:13;11.10;99.90
13898;DHT22;7019;50.766;4.474;2024-03-02T11:50:41;11.10;99.90
13898;DHT22;7019;50.766;4.474;2024-03-02T11:53:10;11.10;99.90
13898;DHT22;7019;50.766;4.474;2024-03-02T11:55:39;11.10;99.90
13898;DHT22;7019;50.766;4.474;2024-03-02T11:58:10;11.20;99.90
13898;DHT22;7019;50.766;4.474;2024-03-02T12:00:38;11.30;99.90
13898;DHT22;7019;50.766;4.474;2024-03-02T12:03:06;11.70;99.90
13898;DHT22;7019;50.766;4.474;2024-03-02T12:05:34;12.00;99.90
13898;DHT22;7019;50.766;4.474;2024-03-02T12:08:03;12.10;99.90
13898;DHT22;7019;50.766;4.474;2024-03-02T12:10:30;12.00;99.90
13898;DHT22;7019;50.766;4.474;2024-03-02T12:12:57;11.70;99.90
13898;DHT22;7019;50.766;4.474;2024-03-02T12:15:28;11.50;99.90
13898;DHT22;7019;50.766;4.474;2024-03-02T12:17:55;11.60;99.90
13898;DHT22;7019;50.766;4.474;2024-03-02T12:20:22;11.90;99.90
13898;DHT22;7019;50.766;4.474;2024-03-02T12:22:51;12.10;99.90
13898;DHT22;7019;50.766;4.474;2024-03-02T12:25:19;12.10;99.90
13898;DHT22;7019;50.766;4.474;2024-03-02T12:27:48;12.00;99.90
13898;DHT22;7019;50.766;4.474;2024-03-02T12:30:17;11.80;99.90
13898;DHT22;7019;50.766;4.474;2024-03-02T12:32:45;11.80;99.90
13898;DHT22;7019;50.766;4.474;2024-03-02T12:35:13;11.80;99.90
13898;DHT22;7019;50.766;4.474;2024-03-02T12:37:44;11.80;99.90
13898;DHT22;7019;50.766;4.474;2024-03-02T12:40:12;11.90;99.90
13898;DHT22;7019;50.766;4.474;2024-03-02T12:42:40;11.90;99.90
13898;DHT22;7019;50.766;4.474;2024-03-02T12:45:08;11.90;99.90
13898;DHT22;7019;50.766;4.474;2024-03-02T12:47:35;11.90;99.90
13898;DHT22;7019;50.766;4.474;2024-03-02T12:50:05;12.00;99.90
13898;DHT22;7019;50.766;4.474;2024-03-02T12:52:32;12.20;99.90
13898;DHT22;7019;50.766;4.474;2024-03-02T12:55:00;12.40;99.90
13898;DHT22;7019;50.766;4.474;2024-03-02T12:57:30;12.60;99.90
13898;DHT22;7019;50.766;4.474;2024-03-02T12:59:58;12.60;99.90
13898;DHT22;7019;50.766;4.474;2024-03-02T13:02:28;12.80;99.90
13898;DHT22;7019;50.766;4.474;2024-03-02T13:04:57;12.90;99.90
13898;DHT22;7019;50.766;4.474;2024-03-02T13:07:26;12.80;99.90
13898;DHT22;7019;50.766;4.474;2024-03-02T13:09:54;12.60;99.90
13898;DHT22;7019;50.766;4.474;2024-03-02T13:12:22;12.50;99.90
13898;DHT22;7019;50.766;4.474;2024-03-02T13:14:51;12.60;99.90
13898;DHT22;7019;50.766;4.474;2024-03-02T13:17:18;12.50;99.90
13898;DHT22;7019;50.766;4.474;2024-03-02T13:19:52;12.50;99.90
13898;DHT22;7019;50.766;4.474;2024-03-02T13:22:20;12.40;99.90
13898;DHT22;7019;50.766;4.474;2024-03-02T13:24:49;12.40;99.90
13898;DHT22;7019;50.766;4.474;2024-03-02T13:27:16;12.40;99.90
13898;DHT22;7019;50.766;4.474;2024-03-02T13:29:45;12.40;99.90
13898;DHT22;7019;50.766;4.474;2024-03-02T13:32:13;12.40;99.90
13898;DHT22;7019;50.766;4.474;2024-03-02T13:34:40;12.20;99.90
13898;DHT22;7019;50.766;4.474;2024-03-02T13:37:07;12.10;99.90
13898;DHT22;7019;50.766;4.474;2024-03-02T13:39:34;11.90;99.90
13898;DHT22;7019;50.766;4.474;2024-03-02T13:42:09;11.90;99.90
13898;DHT22;7019;50.766;4.474;2024-03-02T13:44:37;11.90;99.90
13898;DHT22;7019;50.766;4.474;2024-03-02T13:47:04;11.90;99.90
13898;DHT22;7019;50.766;4.474;2024-03-02T13:49:32;11.90;99.90
13898;DHT22;7019;50.766;4.474;2024-03-02T13:52:03;12.00;99.90
13898;DHT22;7019;50.766;4.474;2024-03-02T13:54:39;12.10;99.90
13898;DHT22;7019;50.766;4.474;2024-03-02T13:57:09;12.10;99.90
13898;DHT22;7019;50.766;4.474;2024-03-02T13:59:38;12.10;99.90
13898;DHT22;7019;50.766;4.474;2024-03-02T14:02:05;12.20;99.90
13898;DHT22;7019;50.766;4.474;2024-03-02T14:04:33;12.20;99.90
13898;DHT22;7019;50.766;4.474;2024-03-02T14:07:01;12.20;99.90
13898;DHT22;7019;50.766;4.474;2024-03-02T14:09:29;12.10;99.90
13898;DHT22;7019;50.766;4.474;2024-03-02T14:11:56;12.00;99.90
13898;DHT22;7019;50.766;4.474;2024-03-02T14:14:24;11.90;99.90
13898;DHT22;7019;50.766;4.474;2024-03-02T14:16:52;11.80;99.90
13898;DHT22;7019;50.766;4.474;2024-03-02T14:19:19;11.80;99.90
13898;DHT22;7019;50.766;4.474;2024-03-02T14:21:47;11.70;99.90
13898;DHT22;7019;50.766;4.474;2024-03-02T14:24:14;11.70;99.90
13898;DHT22;7019;50.766;4.474;2024-03-02T14:26:41;11.70;99.90
13898;DHT22;7019;50.766;4.474;2024-03-02T14:29:08;11.70;99.90
13898;DHT22;7019;50.766;4.474;2024-03-02T14:31:37;11.70;99.90
13898;DHT22;7019;50.766;4.474;2024-03-02T14:34:04;11.60;99.90
13898;DHT22;7019;50.766;4.474;2024-03-02T14:36:31;11.70;99.90
13898;DHT22;7019;50.766;4.474;2024-03-02T14:38:58;11.60;99.90
13898;DHT22;7019;50.766;4.474;2024-03-02T14:41:25;11.70;99.90
13898;DHT22;7019;50.766;4.474;2024-03-02T14:43:52;11.70;99.90
13898;DHT22;7019;50.766;4.474;2024-03-02T14:46:19;11.70;99.90
13898;DHT22;7019;50.766;4.474;2024-03-02T14:48:47;11.80;99.90
13898;DHT22;7019;50.766;4.474;2024-03-02T14:51:14;11.80;99.90
13898;DHT22;7019;50.766;4.474;2024-03-02T14:53:41;11.80;99.90
13898;DHT22;7019;50.766;4.474;2024-03-02T14:56:08;11.70;99.90
13898;DHT22;7019;50.766;4.474;2024-03-02T14:58:35;11.60;99.90
13898;DHT22;7019;50.766;4.474;2024-03-02T15:01:03;11.60;99.90
13898;DHT22;7019;50.766;4.474;2024-03-02T15:03:31;11.40;99.90
13898;DHT22;7019;50.766;4.474;2024-03-02T15:06:00;11.40;99.90
13898;DHT22;7019;50.766;4.474;2024-03-02T15:08:27;11.30;99.90
13898;DHT22;7019;50.766;4.474;2024-03-02T15:10:54;11.30;99.90
13898;DHT22;7019;50.766;4.474;2024-03-02T15:13:24;11.10;99.90
13898;DHT22;7019;50.766;4.474;2024-03-02T15:15:52;11.00;99.90
13898;DHT22;7019;50.766;4.474;2024-03-02T15:18:19;11.00;99.90
13898;DHT22;7019;50.766;4.474;2024-03-02T15:20:46;10.80;99.90
13898;DHT22;7019;50.766;4.474;2024-03-02T15:23:14;10.80;99.90
13898;DHT22;7019;50.766;4.474;2024-03-02T15:25:41;10.70;99.90
13898;DHT22;7019;50.766;4.474;2024-03-02T15:28:08;10.70;99.90
13898;DHT22;7019;50.766;4.474;2024-03-02T15:30:35;10.70;99.90
13898;DHT22;7019;50.766;4.474;2024-03-02T15:33:03;10.70;99.90
13898;DHT22;7019;50.766;4.474;2024-03-02T15:35:30;10.80;99.90
13898;DHT22;7019;50.766;4.474;2024-03-02T15:37:57;10.80;99.90
13898;DHT22;7019;50.766;4.474;2024-03-02T15:40:26;10.80;99.90
13898;DHT22;7019;50.766;4.474;2024-03-02T15:42:54;10.90;99.90
13898;DHT22;7019;50.766;4.474;2024-03-02T15:45:21;10.90;99.90
13898;DHT22;7019;50.766;4.474;2024-03-02T15:47:48;10.90;99.90
13898;DHT22;7019;50.766;4.474;2024-03-02T15:50:15;10.90;99.90
13898;DHT22;7019;50.766;4.474;2024-03-02T15:52:42;10.90;99.90
13898;DHT22;7019;50.766;4.474;2024-03-02T15:55:11;10.90;99.90
13898;DHT22;7019;50.766;4.474;2024-03-02T15:57:39;10.90;99.90
13898;DHT22;7019;50.766;4.474;2024-03-02T16:00:07;10.90;99.90